createdAt,value
2018-07-31T00:00:47.043Z,24.65
2018-07-31T00:01:47.290Z,24.7
2018-07-31T00:02:47.300Z,24.74
2018-07-31T00:03:47.039Z,24.78
2018-07-31T00:04:47.057Z,24.84
2018-07-31T00:05:47.093Z,24.81
2018-07-31T00:06:47.310Z,24.74
2018-07-31T00:07:47.319Z,24.78
2018-07-31T00:08:47.330Z,24.7
2018-07-31T00:09:47.073Z,24.8
2018-07-31T00:10:47.335Z,24.84
2018-07-31T00:11:46.821Z,24.65
2018-07-31T00:12:47.089Z,24.7
2018-07-31T00:13:46.823Z,24.68
2018-07-31T00:14:47.362Z,24.73
2018-07-31T00:15:47.366Z,24.69
2018-07-31T00:16:47.367Z,24.69
2018-07-31T00:17:47.365Z,24.66
2018-07-31T00:18:47.360Z,24.74
2018-07-31T00:19:46.851Z,24.69
2018-07-31T00:20:47.118Z,24.66
2018-07-31T00:21:47.108Z,24.7
2018-07-31T00:22:47.114Z,24.74
2018-07-31T00:23:47.119Z,24.77
2018-07-31T00:24:46.866Z,24.68
2018-07-31T00:25:47.128Z,24.65
2018-07-31T00:26:47.411Z,24.81
2018-07-31T00:27:47.137Z,24.85
2018-07-31T00:28:47.410Z,24.85
2018-07-31T00:29:47.396Z,24.84
2018-07-31T00:30:47.428Z,24.84
2018-07-31T00:31:47.173Z,24.76
2018-07-31T00:32:47.161Z,24.8
2018-07-31T00:33:46.908Z,24.65
2018-07-31T00:34:47.167Z,24.73
2018-07-31T00:35:47.457Z,24.7
2018-07-31T00:36:47.442Z,24.63
2018-07-31T00:37:47.420Z,24.57
2018-07-31T00:38:47.155Z,24.51
2018-07-31T00:39:47.185Z,24.47
2018-07-31T00:40:47.214Z,24.32
2018-07-31T00:41:47.195Z,24.3
2018-07-31T00:42:47.197Z,24.24
2018-07-31T00:43:47.445Z,24.28
2018-07-31T00:44:47.469Z,24.26
2018-07-31T00:45:47.217Z,24.32
2018-07-31T00:46:47.212Z,24.29
2018-07-31T00:47:47.238Z,24.29
2018-07-31T00:48:47.239Z,24.3
2018-07-31T00:49:47.228Z,24.35
2018-07-31T00:50:47.481Z,24.39
2018-07-31T00:51:47.297Z,24.3
2018-07-31T00:52:47.491Z,24.29
2018-07-31T00:53:47.225Z,24.33
2018-07-31T00:54:47.260Z,24.35
2018-07-31T00:55:47.506Z,24.29
2018-07-31T00:56:47.257Z,24.33
2018-07-31T00:57:47.504Z,24.3
2018-07-31T00:58:47.539Z,24.33
2018-07-31T00:59:47.510Z,24.28
2018-07-31T01:00:47.257Z,24.35
2018-07-31T01:01:47.254Z,24.33
2018-07-31T01:02:47.272Z,24.24
2018-07-31T01:03:47.549Z,24.3
2018-07-31T01:04:47.523Z,24.18
2018-07-31T01:05:47.302Z,24.18
2018-07-31T01:06:47.296Z,24.13
2018-07-31T01:07:47.553Z,24.08
2018-07-31T01:08:47.531Z,24.06
2018-07-31T01:09:47.283Z,23.98
2018-07-31T01:10:47.545Z,23.87
2018-07-31T01:11:47.288Z,23.95
2018-07-31T01:12:47.294Z,23.78
2018-07-31T01:13:47.309Z,23.76
2018-07-31T01:14:47.319Z,23.76
2018-07-31T01:15:47.561Z,23.71
2018-07-31T01:16:47.577Z,23.8
2018-07-31T01:17:47.055Z,23.74
2018-07-31T01:18:47.575Z,23.68
2018-07-31T01:19:47.314Z,23.65
2018-07-31T01:20:47.319Z,23.59
2018-07-31T01:21:47.070Z,23.65
2018-07-31T01:22:47.069Z,23.62
2018-07-31T01:23:47.589Z,23.55
2018-07-31T01:24:47.073Z,23.56
2018-07-31T01:25:47.592Z,23.51
2018-07-31T01:26:47.633Z,23.43
2018-07-31T01:27:47.598Z,23.4
2018-07-31T01:28:47.344Z,23.47
2018-07-31T01:29:47.601Z,23.41
2018-07-31T01:30:47.622Z,23.44
2018-07-31T01:31:47.630Z,23.5
2018-07-31T01:32:47.366Z,23.47
2018-07-31T01:33:47.366Z,23.58
2018-07-31T01:34:47.107Z,23.56
2018-07-31T01:35:47.636Z,23.61
2018-07-31T01:36:47.365Z,23.55
2018-07-31T01:37:47.643Z,23.58
2018-07-31T01:38:47.643Z,23.56
2018-07-31T01:39:47.403Z,23.51
2018-07-31T01:40:47.410Z,23.55
2018-07-31T01:41:47.390Z,23.51
2018-07-31T01:42:47.393Z,23.41
2018-07-31T01:43:47.400Z,23.5
2018-07-31T01:44:47.413Z,23.48
2018-07-31T01:45:47.867Z,23.44
2018-07-31T01:46:47.423Z,23.39
2018-07-31T01:47:47.410Z,23.46
2018-07-31T01:48:47.410Z,23.39
2018-07-31T01:49:47.676Z,23.37
2018-07-31T01:50:47.683Z,23.36
2018-07-31T01:51:47.412Z,23.34
2018-07-31T01:52:47.422Z,23.32
2018-07-31T01:53:47.418Z,23.34
2018-07-31T01:54:47.433Z,23.24
2018-07-31T01:55:47.693Z,23.24
2018-07-31T01:56:47.176Z,23.23
2018-07-31T01:57:47.182Z,23.34
2018-07-31T01:58:47.442Z,23.32
2018-07-31T01:59:47.603Z,23.28
2018-07-31T02:00:47.705Z,23.27
2018-07-31T02:01:47.720Z,23.28
2018-07-31T02:02:47.706Z,23.28
2018-07-31T02:03:47.473Z,23.31
2018-07-31T02:04:47.473Z,23.25
2018-07-31T02:05:47.472Z,23.28
2018-07-31T02:06:47.463Z,23.25
2018-07-31T02:07:47.474Z,23.23
2018-07-31T02:08:47.770Z,23.2
2018-07-31T02:09:47.228Z,23.32
2018-07-31T02:10:47.479Z,23.18
2018-07-31T02:11:47.509Z,23.24
2018-07-31T02:12:47.513Z,23.17
2018-07-31T02:13:47.487Z,23.23
2018-07-31T02:14:47.489Z,23.25
2018-07-31T02:15:47.509Z,23.23
2018-07-31T02:16:47.501Z,23.12
2018-07-31T02:17:47.778Z,23.15
2018-07-31T02:18:47.771Z,23.13
2018-07-31T02:19:47.775Z,23.13
2018-07-31T02:20:47.760Z,23.02
2018-07-31T02:21:47.521Z,22.99
2018-07-31T02:22:47.517Z,23.02
2018-07-31T02:23:47.257Z,22.91
2018-07-31T02:24:47.520Z,22.93
2018-07-31T02:25:47.522Z,22.9
2018-07-31T02:26:47.531Z,22.88
2018-07-31T02:27:47.533Z,22.87
2018-07-31T02:28:47.961Z,22.88
2018-07-31T02:29:47.297Z,22.85
2018-07-31T02:30:47.800Z,22.9
2018-07-31T02:31:47.803Z,22.81
2018-07-31T02:32:47.551Z,22.83
2018-07-31T02:33:47.558Z,22.78
2018-07-31T02:34:47.811Z,22.81
2018-07-31T02:35:47.822Z,22.75
2018-07-31T02:36:47.836Z,22.84
2018-07-31T02:37:47.813Z,22.91
2018-07-31T02:38:47.310Z,22.8
2018-07-31T02:39:47.584Z,22.84
2018-07-31T02:40:47.856Z,22.87
2018-07-31T02:41:47.590Z,22.85
2018-07-31T02:42:47.584Z,22.8
2018-07-31T02:43:47.589Z,22.85
2018-07-31T02:44:47.615Z,22.81
2018-07-31T02:45:47.331Z,22.76
2018-07-31T02:46:47.666Z,22.76
2018-07-31T02:47:47.333Z,22.81
2018-07-31T02:48:47.873Z,22.8
2018-07-31T02:49:47.850Z,22.83
2018-07-31T02:50:47.336Z,22.84
2018-07-31T02:51:47.600Z,22.88
2018-07-31T02:52:47.614Z,22.87
2018-07-31T02:53:47.347Z,22.85
2018-07-31T02:54:47.878Z,22.8
2018-07-31T02:55:47.869Z,22.76
2018-07-31T02:56:47.622Z,22.81
2018-07-31T02:57:47.615Z,22.78
2018-07-31T02:58:47.621Z,22.84
2018-07-31T02:59:47.621Z,22.87
2018-07-31T03:00:47.883Z,22.84
2018-07-31T03:01:47.372Z,22.85
2018-07-31T03:02:48.432Z,22.85
2018-07-31T03:03:47.629Z,22.83
2018-07-31T03:04:47.383Z,22.84
2018-07-31T03:05:47.656Z,22.75
2018-07-31T03:06:47.638Z,22.81
2018-07-31T03:07:47.660Z,22.72
2018-07-31T03:08:47.673Z,22.73
2018-07-31T03:09:47.917Z,22.72
2018-07-31T03:10:47.659Z,22.72
2018-07-31T03:11:47.648Z,22.73
2018-07-31T03:12:47.405Z,22.72
2018-07-31T03:13:47.711Z,22.63
2018-07-31T03:14:47.657Z,22.69
2018-07-31T03:15:47.691Z,22.54
2018-07-31T03:16:47.918Z,22.59
2018-07-31T03:17:47.929Z,22.51
2018-07-31T03:18:47.923Z,22.43
2018-07-31T03:19:47.672Z,22.55
2018-07-31T03:20:47.451Z,22.59
2018-07-31T03:21:47.949Z,22.51
2018-07-31T03:22:47.688Z,22.53
2018-07-31T03:23:47.687Z,22.51
2018-07-31T03:24:47.707Z,22.54
2018-07-31T03:25:47.949Z,22.57
2018-07-31T03:26:47.701Z,22.53
2018-07-31T03:27:47.716Z,22.59
2018-07-31T03:28:47.705Z,22.55
2018-07-31T03:29:47.708Z,22.53
2018-07-31T03:30:47.708Z,22.6
2018-07-31T03:31:47.965Z,22.63
2018-07-31T03:32:47.711Z,22.63
2018-07-31T03:33:47.961Z,22.65
2018-07-31T03:34:47.767Z,22.69
2018-07-31T03:35:47.737Z,22.72
2018-07-31T03:36:47.722Z,22.69
2018-07-31T03:37:47.724Z,22.75
2018-07-31T03:38:47.971Z,22.69
2018-07-31T03:39:47.980Z,22.73
2018-07-31T03:40:47.733Z,22.69
2018-07-31T03:41:47.490Z,22.66
2018-07-31T03:42:48.001Z,22.69
2018-07-31T03:43:47.749Z,22.7
2018-07-31T03:44:47.737Z,22.68
2018-07-31T03:45:47.744Z,22.75
2018-07-31T03:46:47.739Z,22.76
2018-07-31T03:47:47.747Z,22.72
2018-07-31T03:48:47.766Z,22.85
2018-07-31T03:49:47.508Z,22.75
2018-07-31T03:50:47.772Z,22.81
2018-07-31T03:51:47.772Z,22.84
2018-07-31T03:52:47.769Z,22.91
2018-07-31T03:53:47.527Z,22.83
2018-07-31T03:54:47.767Z,22.88
2018-07-31T03:55:47.520Z,22.85
2018-07-31T03:56:48.039Z,22.83
2018-07-31T03:57:47.786Z,22.88
2018-07-31T03:58:47.771Z,22.85
2018-07-31T03:59:48.025Z,22.85
2018-07-31T04:00:47.785Z,22.9
2018-07-31T04:01:47.784Z,22.84
2018-07-31T04:02:48.050Z,22.87
2018-07-31T04:03:47.831Z,22.81
2018-07-31T04:04:48.285Z,22.84
2018-07-31T04:05:47.794Z,22.85
2018-07-31T04:06:47.802Z,22.85
2018-07-31T04:07:47.549Z,22.8
2018-07-31T04:08:47.822Z,22.81
2018-07-31T04:09:48.071Z,22.83
2018-07-31T04:10:47.813Z,22.84
2018-07-31T04:11:47.825Z,22.84
2018-07-31T04:12:48.077Z,22.75
2018-07-31T04:13:47.572Z,22.8
2018-07-31T04:14:48.091Z,22.7
2018-07-31T04:15:48.094Z,22.7
2018-07-31T04:16:47.877Z,22.62
2018-07-31T04:17:48.104Z,22.62
2018-07-31T04:18:47.843Z,22.6
2018-07-31T04:19:47.839Z,22.62
2018-07-31T04:20:48.128Z,22.66
2018-07-31T04:21:47.840Z,22.65
2018-07-31T04:22:47.845Z,22.68
2018-07-31T04:23:47.583Z,22.75
2018-07-31T04:24:48.096Z,22.72
2018-07-31T04:25:47.865Z,22.84
2018-07-31T04:26:48.117Z,23.05
2018-07-31T04:27:48.141Z,23.18
2018-07-31T04:28:47.871Z,23.23
2018-07-31T04:29:47.867Z,23.37
2018-07-31T04:30:47.861Z,23.47
2018-07-31T04:31:48.132Z,23.51
2018-07-31T04:32:47.874Z,23.61
2018-07-31T04:33:47.877Z,23.68
2018-07-31T04:34:47.883Z,23.78
2018-07-31T04:35:48.237Z,23.92
2018-07-31T04:36:47.880Z,23.95
2018-07-31T04:37:48.156Z,24.05
2018-07-31T04:38:47.634Z,24.01
2018-07-31T04:39:47.908Z,24.08
2018-07-31T04:40:47.653Z,24.21
2018-07-31T04:41:48.174Z,24.16
2018-07-31T04:42:48.173Z,24.26
2018-07-31T04:43:48.162Z,24.3
2018-07-31T04:44:48.183Z,24.55
2018-07-31T04:45:47.917Z,24.55
2018-07-31T04:46:47.919Z,24.61
2018-07-31T04:47:47.933Z,24.7
2018-07-31T04:48:47.928Z,24.81
2018-07-31T04:49:47.943Z,24.74
2018-07-31T04:50:47.691Z,24.57
2018-07-31T04:51:47.965Z,24.6
2018-07-31T04:52:47.963Z,24.61
2018-07-31T04:53:47.954Z,24.7
2018-07-31T04:54:47.977Z,24.84
2018-07-31T04:55:47.963Z,24.93
2018-07-31T04:56:48.134Z,25.14
2018-07-31T04:57:48.233Z,25.23
2018-07-31T04:58:48.224Z,25.32
2018-07-31T04:59:47.748Z,25.55
2018-07-31T05:00:47.992Z,25.73
2018-07-31T05:01:47.988Z,25.8
2018-07-31T05:02:48.244Z,25.93
2018-07-31T05:03:47.999Z,25.96
2018-07-31T05:04:48.019Z,26.07
2018-07-31T05:05:48.275Z,26.15
2018-07-31T05:06:48.037Z,26.22
2018-07-31T05:07:48.293Z,26.33
2018-07-31T05:08:48.288Z,26.56
2018-07-31T05:09:48.036Z,26.59
2018-07-31T05:10:48.055Z,26.6
2018-07-31T05:11:47.777Z,26.68
2018-07-31T05:12:48.303Z,26.84
2018-07-31T05:13:48.055Z,26.85
2018-07-31T05:14:47.797Z,27.11
2018-07-31T05:15:48.096Z,27.14
2018-07-31T05:16:48.311Z,27.27
2018-07-31T05:17:48.317Z,27.35
2018-07-31T05:18:48.339Z,27.65
2018-07-31T05:19:48.341Z,27.64
2018-07-31T05:20:48.370Z,27.82
2018-07-31T05:21:48.092Z,27.87
2018-07-31T05:22:48.348Z,27.86
2018-07-31T05:23:48.381Z,27.73
2018-07-31T05:24:48.360Z,27.74
2018-07-31T05:25:48.371Z,27.87
2018-07-31T05:26:48.120Z,27.98
2018-07-31T05:27:48.388Z,28.04
2018-07-31T05:28:48.385Z,28.02
2018-07-31T05:29:48.397Z,28.15
2018-07-31T05:30:48.401Z,28.23
2018-07-31T05:31:48.433Z,28.26
2018-07-31T05:32:48.854Z,28.39
2018-07-31T05:33:48.422Z,28.44
2018-07-31T05:34:48.168Z,28.56
2018-07-31T05:35:48.182Z,28.66
2018-07-31T05:36:48.178Z,28.86
2018-07-31T05:37:48.190Z,29.04
2018-07-31T05:38:48.455Z,29.02
2018-07-31T05:39:48.208Z,28.98
2018-07-31T05:40:48.466Z,29.04
2018-07-31T05:41:48.212Z,29.12
2018-07-31T05:42:48.229Z,29.16
2018-07-31T05:43:48.235Z,29.1
2018-07-31T05:44:48.244Z,29.23
2018-07-31T05:45:48.512Z,29.31
2018-07-31T05:46:48.265Z,29.45
2018-07-31T05:47:48.267Z,29.56
2018-07-31T05:48:48.551Z,29.57
2018-07-31T05:49:48.531Z,29.5
2018-07-31T05:50:48.290Z,29.5
2018-07-31T05:51:48.336Z,29.39
2018-07-31T05:52:48.555Z,29.51
2018-07-31T05:53:48.067Z,29.57
2018-07-31T05:54:48.310Z,29.68
2018-07-31T05:55:48.581Z,29.72
2018-07-31T05:56:48.326Z,29.87
2018-07-31T05:57:48.333Z,29.97
2018-07-31T05:58:48.356Z,30.02
2018-07-31T05:59:48.599Z,29.98
2018-07-31T06:00:48.356Z,30.12
2018-07-31T06:01:48.106Z,30.34
2018-07-31T06:02:48.367Z,30.51
2018-07-31T06:03:48.386Z,30.61
2018-07-31T06:04:48.388Z,30.62
2018-07-31T06:05:48.405Z,30.7
2018-07-31T06:06:48.411Z,30.83
2018-07-31T06:07:48.676Z,31.09
2018-07-31T06:08:48.668Z,31.02
2018-07-31T06:09:48.688Z,30.96
2018-07-31T06:10:48.688Z,31.07
2018-07-31T06:11:48.447Z,31.28
2018-07-31T06:12:48.729Z,31.31
2018-07-31T06:13:48.733Z,31.42
2018-07-31T06:14:48.489Z,31.46
2018-07-31T06:15:48.738Z,31.47
2018-07-31T06:16:48.490Z,31.46
2018-07-31T06:17:48.496Z,31.54
2018-07-31T06:18:48.500Z,31.47
2018-07-31T06:19:48.781Z,31.64
2018-07-31T06:20:48.778Z,31.71
2018-07-31T06:21:48.780Z,31.62
2018-07-31T06:22:48.271Z,31.64
2018-07-31T06:23:48.798Z,31.87
2018-07-31T06:24:48.542Z,31.92
2018-07-31T06:25:48.828Z,31.99
2018-07-31T06:26:48.587Z,32.07
2018-07-31T06:27:48.850Z,32.08
2018-07-31T06:28:48.854Z,32.15
2018-07-31T06:29:48.583Z,32.14
2018-07-31T06:30:48.612Z,32.27
2018-07-31T06:31:48.608Z,32.4
2018-07-31T06:32:48.667Z,32.48
2018-07-31T06:33:50.492Z,32.46
2018-07-31T06:34:48.898Z,32.48
2018-07-31T06:35:48.651Z,32.51
2018-07-31T06:36:48.919Z,32.56
2018-07-31T06:37:48.918Z,32.73
2018-07-31T06:38:48.931Z,32.87
2018-07-31T06:39:48.693Z,33.04
2018-07-31T06:40:48.961Z,32.78
2018-07-31T06:41:48.703Z,32.71
2018-07-31T06:42:48.964Z,32.73
2018-07-31T06:43:48.997Z,32.86
2018-07-31T06:44:48.477Z,33.05
2018-07-31T06:45:49.025Z,33.3
2018-07-31T06:46:49.014Z,33.52
2018-07-31T06:47:48.779Z,33.53
2018-07-31T06:48:49.055Z,33.62
2018-07-31T06:49:48.509Z,33.74
2018-07-31T06:50:48.538Z,33.86
2018-07-31T06:51:48.820Z,33.87
2018-07-31T06:52:49.066Z,33.74
2018-07-31T06:53:49.081Z,33.68
2018-07-31T06:54:49.094Z,33.5
2018-07-31T06:55:48.818Z,33.67
2018-07-31T06:56:49.212Z,33.59
2018-07-31T06:57:49.108Z,33.74
2018-07-31T06:58:48.853Z,33.77
2018-07-31T06:59:48.616Z,33.86
2018-07-31T07:00:48.869Z,34.06
2018-07-31T07:01:49.138Z,34.21
2018-07-31T07:02:48.645Z,34.42
2018-07-31T07:03:48.900Z,34.5
2018-07-31T07:04:49.186Z,34.47
2018-07-31T07:05:48.911Z,34.52
2018-07-31T07:06:48.666Z,34.57
2018-07-31T07:07:49.203Z,34.6
2018-07-31T07:08:48.943Z,34.66
2018-07-31T07:09:49.211Z,34.77
2018-07-31T07:10:49.222Z,34.81
2018-07-31T07:11:48.981Z,34.83
2018-07-31T07:12:48.995Z,34.92
2018-07-31T07:13:49.264Z,35.04
2018-07-31T07:14:49.024Z,35.08
2018-07-31T07:15:49.030Z,34.9
2018-07-31T07:16:49.041Z,34.64
2018-07-31T07:17:48.781Z,34.71
2018-07-31T07:18:49.601Z,34.74
2018-07-31T07:19:49.080Z,34.55
2018-07-31T07:20:49.074Z,34.47
2018-07-31T07:21:49.336Z,34.11
2018-07-31T07:22:49.108Z,33.68
2018-07-31T07:23:49.354Z,33.47
2018-07-31T07:24:49.117Z,33.27
2018-07-31T07:25:48.864Z,33.11
2018-07-31T07:26:48.872Z,33.04
2018-07-31T07:27:49.205Z,32.97
2018-07-31T07:28:48.889Z,32.96
2018-07-31T07:29:48.891Z,32.93
2018-07-31T07:30:49.167Z,32.89
2018-07-31T07:31:48.964Z,33.07
2018-07-31T07:32:48.920Z,33.46
2018-07-31T07:33:49.351Z,33.81
2018-07-31T07:34:49.242Z,34.2
2018-07-31T07:35:49.212Z,34.43
2018-07-31T07:36:49.232Z,34.43
2018-07-31T07:37:49.271Z,34.78
2018-07-31T07:38:49.228Z,35.11
2018-07-31T07:39:49.093Z,35.45
2018-07-31T07:40:49.509Z,35.82
2018-07-31T07:41:49.523Z,36.08
2018-07-31T07:42:49.522Z,36.07
2018-07-31T07:43:49.038Z,36.16
2018-07-31T07:44:49.276Z,36.09
2018-07-31T07:45:49.547Z,36.02
2018-07-31T07:46:49.315Z,35.95
2018-07-31T07:47:49.611Z,35.9
2018-07-31T07:48:49.324Z,36.07
2018-07-31T07:49:49.332Z,36.36
2018-07-31T07:50:49.089Z,36.58
2018-07-31T07:51:49.355Z,36.91
2018-07-31T07:52:49.362Z,36.86
2018-07-31T07:53:50.193Z,36.84
2018-07-31T07:54:49.644Z,36.61
2018-07-31T07:55:49.404Z,36.62
2018-07-31T07:56:49.674Z,36.67
2018-07-31T07:57:49.675Z,36.81
2018-07-31T07:58:49.685Z,36.8
2018-07-31T07:59:49.442Z,36.88
2018-07-31T08:00:49.184Z,36.95
2018-07-31T08:01:49.733Z,37.1
2018-07-31T08:02:49.737Z,36.95
2018-07-31T08:03:49.952Z,37.07
2018-07-31T08:04:49.498Z,37.13
2018-07-31T08:05:49.248Z,37.2
2018-07-31T08:06:49.506Z,37.17
2018-07-31T08:07:49.534Z,37.06
2018-07-31T08:08:49.553Z,37.15
2018-07-31T08:09:49.671Z,37.21
2018-07-31T08:10:49.805Z,37.26
2018-07-31T08:11:49.569Z,37.28
2018-07-31T08:12:49.840Z,37.25
2018-07-31T08:13:49.589Z,37.25
2018-07-31T08:14:49.595Z,37.45
2018-07-31T08:15:49.867Z,37.37
2018-07-31T08:16:49.612Z,37.2
2018-07-31T08:17:49.373Z,36.95
2018-07-31T08:18:49.391Z,36.8
2018-07-31T08:19:49.644Z,36.83
2018-07-31T08:20:49.934Z,36.95
2018-07-31T08:21:49.680Z,37.08
2018-07-31T08:22:49.946Z,37.21
2018-07-31T08:23:49.947Z,37.06
2018-07-31T08:24:49.704Z,37.06
2018-07-31T08:25:49.724Z,37.14
2018-07-31T08:26:49.725Z,37.14
2018-07-31T08:27:49.919Z,37.32
2018-07-31T08:28:49.746Z,37.3
2018-07-31T08:29:50.018Z,37.18
2018-07-31T08:30:49.770Z,37.32
2018-07-31T08:31:50.046Z,37.44
2018-07-31T08:32:49.794Z,37.53
2018-07-31T08:33:49.803Z,37.71
2018-07-31T08:34:50.073Z,37.59
2018-07-31T08:35:49.830Z,37.65
2018-07-31T08:36:49.827Z,37.58
2018-07-31T08:37:49.854Z,37.56
2018-07-31T08:38:50.110Z,37.6
2018-07-31T08:39:50.122Z,37.74
2018-07-31T08:40:49.878Z,37.84
2018-07-31T08:41:50.163Z,37.96
2018-07-31T08:42:49.902Z,38.06
2018-07-31T08:43:49.659Z,37.8
2018-07-31T08:44:49.914Z,37.67
2018-07-31T08:45:49.926Z,37.64
2018-07-31T08:46:49.944Z,37.47
2018-07-31T08:47:50.209Z,37.49
2018-07-31T08:48:50.226Z,37.67
2018-07-31T08:49:49.998Z,37.92
2018-07-31T08:50:49.980Z,38.28
2018-07-31T08:51:50.023Z,38.34
2018-07-31T08:52:50.013Z,38.26
2018-07-31T08:53:50.024Z,38.12
2018-07-31T08:54:50.292Z,37.65
2018-07-31T08:55:50.145Z,37.37
2018-07-31T08:56:50.412Z,36.99
2018-07-31T08:57:49.810Z,36.37
2018-07-31T08:58:50.330Z,35.7
2018-07-31T08:59:50.100Z,35.27
2018-07-31T09:00:50.091Z,34.8
2018-07-31T09:01:50.113Z,34.51
2018-07-31T09:02:50.569Z,34.33
2018-07-31T09:03:50.384Z,34.16
2018-07-31T09:04:50.405Z,33.9
2018-07-31T09:05:50.150Z,33.77
2018-07-31T09:06:49.906Z,33.57
2018-07-31T09:07:50.181Z,33.39
2018-07-31T09:08:49.971Z,33.28
2018-07-31T09:09:50.445Z,33.22
2018-07-31T09:10:50.247Z,33.17
2018-07-31T09:11:50.221Z,33.17
2018-07-31T09:12:50.232Z,33.11
2018-07-31T09:13:50.226Z,33
2018-07-31T09:14:50.561Z,32.75
2018-07-31T09:15:50.504Z,32.68
2018-07-31T09:16:50.258Z,32.73
2018-07-31T09:17:50.527Z,32.73
2018-07-31T09:18:50.273Z,32.71
2018-07-31T09:19:51.332Z,32.71
2018-07-31T09:20:50.572Z,32.71
2018-07-31T09:21:50.294Z,32.83
2018-07-31T09:22:50.307Z,32.95
2018-07-31T09:23:50.578Z,33.17
2018-07-31T09:24:50.494Z,33.09
2018-07-31T09:25:50.351Z,33.05
2018-07-31T09:26:50.329Z,32.89
2018-07-31T09:27:50.628Z,32.96
2018-07-31T09:28:50.617Z,33.02
2018-07-31T09:29:50.385Z,33.12
2018-07-31T09:30:50.573Z,33.15
2018-07-31T09:31:50.649Z,33.15
2018-07-31T09:32:50.642Z,33.12
2018-07-31T09:33:50.388Z,33.24
2018-07-31T09:34:50.751Z,33.31
2018-07-31T09:35:50.422Z,33.19
2018-07-31T09:36:50.415Z,33.28
2018-07-31T09:37:50.687Z,33.17
2018-07-31T09:38:50.430Z,33.14
2018-07-31T09:39:50.442Z,33.14
2018-07-31T09:40:50.437Z,33.23
2018-07-31T09:41:50.440Z,33.4
2018-07-31T09:42:50.877Z,33.5
2018-07-31T09:43:50.203Z,33.49
2018-07-31T09:44:50.458Z,33.47
2018-07-31T09:45:50.475Z,33.5
2018-07-31T09:46:50.480Z,33.58
2018-07-31T09:47:50.479Z,33.76
2018-07-31T09:48:50.488Z,33.9
2018-07-31T09:49:50.251Z,34.05
2018-07-31T09:50:50.769Z,34.08
2018-07-31T09:51:50.258Z,34.11
2018-07-31T09:52:50.537Z,34.16
2018-07-31T09:53:50.540Z,34.21
2018-07-31T09:54:50.543Z,34.18
2018-07-31T09:55:50.541Z,34.23
2018-07-31T09:56:50.804Z,34.27
2018-07-31T09:57:50.562Z,34.32
2018-07-31T09:58:50.583Z,34.33
2018-07-31T09:59:50.835Z,34.29
2018-07-31T10:00:50.833Z,34.35
2018-07-31T10:01:50.330Z,34.3
2018-07-31T10:02:50.329Z,34.27
2018-07-31T10:03:50.856Z,34.32
2018-07-31T10:04:50.635Z,34.29
2018-07-31T10:05:50.365Z,34.29
2018-07-31T10:06:50.893Z,34.24
2018-07-31T10:07:50.651Z,34.29
2018-07-31T10:08:50.897Z,34.3
2018-07-31T10:09:50.924Z,34.32
2018-07-31T10:10:50.907Z,34.32
2018-07-31T10:11:51.240Z,34.39
2018-07-31T10:12:50.686Z,34.47
2018-07-31T10:13:50.686Z,34.54
2018-07-31T10:14:50.680Z,34.58
2018-07-31T10:15:50.698Z,34.8
2018-07-31T10:16:50.964Z,34.89
2018-07-31T10:17:51.262Z,34.9
2018-07-31T10:18:50.990Z,34.99
2018-07-31T10:19:51.829Z,34.97
2018-07-31T10:20:50.726Z,34.9
2018-07-31T10:21:50.990Z,34.85
2018-07-31T10:22:50.760Z,34.73
2018-07-31T10:23:50.761Z,34.64
2018-07-31T10:24:50.772Z,34.62
2018-07-31T10:25:51.027Z,34.61
2018-07-31T10:26:51.033Z,34.55
2018-07-31T10:27:51.037Z,34.57
2018-07-31T10:28:50.789Z,34.62
2018-07-31T10:29:51.058Z,34.8
2018-07-31T10:30:51.382Z,34.81
2018-07-31T10:31:50.816Z,34.89
2018-07-31T10:32:50.563Z,34.81
2018-07-31T10:33:51.082Z,34.81
2018-07-31T10:34:51.091Z,34.93
2018-07-31T10:35:50.840Z,35
2018-07-31T10:36:50.847Z,35
2018-07-31T10:37:50.952Z,35.07
2018-07-31T10:38:50.869Z,34.96
2018-07-31T10:39:50.866Z,35.07
2018-07-31T10:40:50.885Z,34.97
2018-07-31T10:41:50.890Z,35.02
2018-07-31T10:42:51.153Z,34.96
2018-07-31T10:43:50.972Z,34.92
2018-07-31T10:44:50.911Z,34.95
2018-07-31T10:45:50.910Z,34.93
2018-07-31T10:46:50.928Z,35.07
2018-07-31T10:47:51.195Z,35.08
2018-07-31T10:48:51.248Z,35.23
2018-07-31T10:49:51.215Z,35.24
2018-07-31T10:50:50.965Z,35.33
2018-07-31T10:51:50.978Z,35.44
2018-07-31T10:52:51.242Z,35.36
2018-07-31T10:53:51.242Z,35.26
2018-07-31T10:54:50.750Z,35.14
2018-07-31T10:55:51.015Z,35.12
2018-07-31T10:56:51.054Z,35.08
2018-07-31T10:57:51.320Z,34.97
2018-07-31T10:58:51.387Z,34.97
2018-07-31T10:59:50.924Z,34.99
2018-07-31T11:00:51.324Z,35.08
2018-07-31T11:01:51.049Z,35.07
2018-07-31T11:02:51.550Z,35.12
2018-07-31T11:03:51.227Z,34.96
2018-07-31T11:04:51.337Z,34.9
2018-07-31T11:05:51.070Z,34.89
2018-07-31T11:06:50.839Z,35.07
2018-07-31T11:07:51.101Z,35.12
2018-07-31T11:08:51.353Z,35.24
2018-07-31T11:09:51.125Z,35.27
2018-07-31T11:10:51.384Z,35.27
2018-07-31T11:11:51.113Z,35.29
2018-07-31T11:12:51.133Z,35.29
2018-07-31T11:13:51.393Z,35.27
2018-07-31T11:14:51.403Z,35.19
2018-07-31T11:15:51.151Z,35.17
2018-07-31T11:16:50.910Z,35.24
2018-07-31T11:17:51.153Z,35.41
2018-07-31T11:18:51.420Z,35.31
2018-07-31T11:19:51.180Z,35.31
2018-07-31T11:20:51.519Z,35.34
2018-07-31T11:21:51.198Z,35.3
2018-07-31T11:22:50.940Z,35.29
2018-07-31T11:23:51.222Z,35.23
2018-07-31T11:24:51.485Z,35.23
2018-07-31T11:25:51.476Z,35.14
2018-07-31T11:26:51.487Z,35.1
2018-07-31T11:27:51.239Z,35.1
2018-07-31T11:28:51.521Z,35.05
2018-07-31T11:29:51.244Z,35.08
2018-07-31T11:30:51.510Z,35.02
2018-07-31T11:31:51.014Z,35.1
2018-07-31T11:32:51.536Z,35.17
2018-07-31T11:33:51.563Z,35.31
2018-07-31T11:34:51.572Z,35.29
2018-07-31T11:35:51.303Z,35.33
2018-07-31T11:36:51.044Z,35.27
2018-07-31T11:37:51.046Z,35.3
2018-07-31T11:38:51.328Z,35.41
2018-07-31T11:39:51.066Z,35.51
2018-07-31T11:40:51.604Z,35.55
2018-07-31T11:41:51.346Z,35.71
2018-07-31T11:42:51.623Z,35.79
2018-07-31T11:43:51.646Z,35.8
2018-07-31T11:44:51.097Z,35.71
2018-07-31T11:45:51.105Z,35.73
2018-07-31T11:46:51.390Z,35.63
2018-07-31T11:47:51.422Z,35.66
2018-07-31T11:48:51.398Z,35.48
2018-07-31T11:49:51.495Z,35.6
2018-07-31T11:50:51.665Z,35.46
2018-07-31T11:51:51.675Z,35.48
2018-07-31T11:52:51.671Z,35.53
2018-07-31T11:53:51.202Z,35.49
2018-07-31T11:54:51.687Z,35.33
2018-07-31T11:55:51.728Z,35.26
2018-07-31T11:56:51.461Z,35.18
2018-07-31T11:57:51.455Z,35.07
2018-07-31T11:58:51.466Z,34.9
2018-07-31T11:59:51.463Z,34.88
2018-07-31T12:00:51.731Z,34.97
2018-07-31T12:01:51.279Z,35.05
2018-07-31T12:02:51.486Z,35.02
2018-07-31T12:03:51.759Z,35.15
2018-07-31T12:04:51.787Z,35.3
2018-07-31T12:05:51.782Z,35.44
2018-07-31T12:06:51.542Z,35.46
2018-07-31T12:07:51.778Z,35.55
2018-07-31T12:08:51.533Z,35.6
2018-07-31T12:09:51.598Z,35.56
2018-07-31T12:10:51.560Z,35.68
2018-07-31T12:11:51.560Z,35.68
2018-07-31T12:12:51.834Z,35.52
2018-07-31T12:13:51.984Z,35.6
2018-07-31T12:14:51.596Z,35.66
2018-07-31T12:15:51.617Z,35.44
2018-07-31T12:16:51.848Z,35.39
2018-07-31T12:17:51.864Z,35.39
2018-07-31T12:18:51.872Z,35.45
2018-07-31T12:19:51.613Z,35.49
2018-07-31T12:20:51.395Z,35.66
2018-07-31T12:21:51.885Z,35.63
2018-07-31T12:22:51.647Z,35.64
2018-07-31T12:23:51.959Z,35.68
2018-07-31T12:24:51.661Z,35.85
2018-07-31T12:25:51.662Z,35.83
2018-07-31T12:26:51.726Z,35.8
2018-07-31T12:27:51.413Z,35.64
2018-07-31T12:28:51.695Z,35.58
2018-07-31T12:29:51.688Z,35.58
2018-07-31T12:30:51.445Z,35.6
2018-07-31T12:31:51.711Z,35.76
2018-07-31T12:32:52.189Z,35.85
2018-07-31T12:33:51.481Z,35.88
2018-07-31T12:34:51.728Z,36.05
2018-07-31T12:35:51.991Z,36.02
2018-07-31T12:36:51.752Z,36.12
2018-07-31T12:37:52.008Z,36.16
2018-07-31T12:38:52.017Z,36.14
2018-07-31T12:39:51.502Z,36.27
2018-07-31T12:40:51.766Z,36.25
2018-07-31T12:41:51.780Z,36.14
2018-07-31T12:42:52.047Z,36.18
2018-07-31T12:43:51.805Z,36.14
2018-07-31T12:44:52.055Z,36.05
2018-07-31T12:45:51.812Z,36.02
2018-07-31T12:46:52.080Z,36.16
2018-07-31T12:47:52.079Z,36
2018-07-31T12:48:52.096Z,36.01
2018-07-31T12:49:51.587Z,36.12
2018-07-31T12:50:51.592Z,35.98
2018-07-31T12:51:51.860Z,35.97
2018-07-31T12:52:51.855Z,35.93
2018-07-31T12:53:52.138Z,36.04
2018-07-31T12:54:52.138Z,36.02
2018-07-31T12:55:52.137Z,36.08